createdAt,value
2016-11-29T00:01:08.297Z,82.17
2016-11-29T00:02:16.864Z,82.64
2016-11-29T00:03:25.502Z,82.17
2016-11-29T00:04:34.397Z,82.07
2016-11-29T00:05:42.961Z,83.02
2016-11-29T00:06:52.184Z,83.11
2016-11-29T00:08:01.409Z,83.3
2016-11-29T00:09:10.990Z,83.3
2016-11-29T00:10:20.203Z,83.21
2016-11-29T00:11:29.424Z,83.3
2016-11-29T00:12:38.329Z,82.64
2016-11-29T00:13:47.570Z,82.92
2016-11-29T00:14:56.956Z,82.73
2016-11-29T00:16:05.559Z,82.83
2016-11-29T00:17:14.789Z,82.92
2016-11-29T00:18:23.691Z,82.92
2016-11-29T00:19:32.916Z,83.3
2016-11-29T00:20:41.847Z,83.87
2016-11-29T00:21:50.744Z,83.3
2016-11-29T00:22:59.317Z,83.21
2016-11-29T00:24:08.221Z,83.4
2016-11-29T00:25:17.112Z,83.11
2016-11-29T00:26:26.027Z,83.3
2016-11-29T00:27:34.592Z,82.92
2016-11-29T00:28:43.169Z,82.07
2016-11-29T00:29:51.743Z,82.35
2016-11-29T00:31:00.326Z,82.17
2016-11-29T00:32:09.270Z,81.41
2016-11-29T00:33:17.837Z,81.6
2016-11-29T00:34:26.735Z,81.6
2016-11-29T00:35:35.654Z,82.26
2016-11-29T00:36:44.244Z,81.79
2016-11-29T00:37:53.430Z,82.07
2016-11-29T00:39:02.312Z,81.98
2016-11-29T00:40:11.214Z,82.35
2016-11-29T00:41:20.113Z,82.17
2016-11-29T00:42:29.333Z,82.45
2016-11-29T00:43:38.259Z,82.64
2016-11-29T00:44:46.827Z,82.83
2016-11-29T00:45:56.047Z,82.73
2016-11-29T00:47:05.278Z,82.07
2016-11-29T00:48:14.484Z,81.79
2016-11-29T00:49:23.741Z,81.88
2016-11-29T00:50:32.323Z,82.26
2016-11-29T00:51:41.245Z,81.98
2016-11-29T00:52:50.156Z,81.6
2016-11-29T00:53:58.720Z,82.26
2016-11-29T00:55:07.662Z,82.73
2016-11-29T00:56:16.231Z,82.17
2016-11-29T00:57:25.763Z,82.26
2016-11-29T00:58:34.328Z,82.35
2016-11-29T00:59:43.536Z,82.92
2016-11-29T01:00:53.145Z,82.17
2016-11-29T01:02:02.044Z,82.07
2016-11-29T01:03:10.620Z,82.83
2016-11-29T01:04:19.190Z,82.54
2016-11-29T01:05:27.759Z,82.83
2016-11-29T01:06:36.675Z,83.21
2016-11-29T01:07:45.570Z,82.64
2016-11-29T01:08:54.462Z,82.83
2016-11-29T01:10:03.701Z,82.83
2016-11-29T01:11:12.598Z,83.87
2016-11-29T01:12:21.921Z,84.06
2016-11-29T01:13:31.129Z,84.53
2016-11-29T01:14:40.025Z,84.44
2016-11-29T01:15:48.610Z,83.49
2016-11-29T01:16:57.197Z,83.97
2016-11-29T01:18:06.452Z,83.87
2016-11-29T01:19:15.334Z,83.21
2016-11-29T01:20:23.907Z,83.3
2016-11-29T01:21:32.509Z,83.11
2016-11-29T01:22:41.738Z,83.4
2016-11-29T01:23:51.086Z,83.4
2016-11-29T01:24:59.991Z,83.3
2016-11-29T01:26:08.897Z,83.02
2016-11-29T01:27:17.503Z,82.64
2016-11-29T01:28:26.075Z,83.21
2016-11-29T01:29:35.027Z,82.92
2016-11-29T01:30:43.612Z,83.11
2016-11-29T01:31:52.835Z,83.21
2016-11-29T01:33:01.416Z,83.21
2016-11-29T01:34:09.984Z,83.21
2016-11-29T01:35:19.334Z,83.4
2016-11-29T01:36:27.907Z,83.21
2016-11-29T01:37:36.488Z,83.68
2016-11-29T01:38:45.060Z,83.3
2016-11-29T01:39:53.968Z,83.49
2016-11-29T01:41:02.921Z,83.3
2016-11-29T01:42:11.505Z,83.21
2016-11-29T01:43:20.404Z,83.21
2016-11-29T01:44:28.985Z,82.92
2016-11-29T01:45:37.871Z,82.73
2016-11-29T01:46:46.805Z,82.73
2016-11-29T01:47:55.422Z,82.73
2016-11-29T01:49:03.989Z,82.54
2016-11-29T01:50:12.584Z,82.73
2016-11-29T01:51:21.142Z,82.54
2016-11-29T01:52:30.163Z,82.83
2016-11-29T01:53:39.047Z,82.45
2016-11-29T01:54:48.257Z,83.11
2016-11-29T01:55:56.818Z,83.78
2016-11-29T01:57:06.035Z,83.21
2016-11-29T01:58:15.019Z,83.3
2016-11-29T01:59:23.924Z,83.3
2016-11-29T02:00:32.830Z,83.3
2016-11-29T02:01:41.735Z,83.11
2016-11-29T02:02:50.316Z,83.87
2016-11-29T02:03:59.575Z,83.78
2016-11-29T02:05:08.475Z,83.68
2016-11-29T02:06:17.056Z,83.78
2016-11-29T02:07:25.643Z,83.3
2016-11-29T02:08:34.224Z,82.54
2016-11-29T02:09:43.154Z,82.17
2016-11-29T02:10:51.728Z,82.17
2016-11-29T02:12:00.631Z,81.7
2016-11-29T02:13:09.510Z,81.13
2016-11-29T02:14:18.401Z,80.84
2016-11-29T02:15:27.978Z,81.6
2016-11-29T02:16:36.553Z,82.45
2016-11-29T02:17:45.450Z,82.45
2016-11-29T02:18:54.661Z,81.88
2016-11-29T02:20:03.548Z,82.17
2016-11-29T02:21:12.179Z,82.83
2016-11-29T02:22:21.386Z,83.4
2016-11-29T02:23:29.962Z,83.21
2016-11-29T02:24:38.547Z,82.83
2016-11-29T02:25:53.388Z,82.83
2016-11-29T02:27:02.316Z,82.83
2016-11-29T02:28:11.194Z,83.21
2016-11-29T02:29:19.776Z,83.4
2016-11-29T02:30:28.351Z,83.3
2016-11-29T02:31:36.929Z,82.45
2016-11-29T02:32:45.548Z,81.98
2016-11-29T02:33:54.444Z,82.45
2016-11-29T02:35:03.016Z,82.17
2016-11-29T02:36:12.248Z,82.64
2016-11-29T02:37:21.140Z,83.11
2016-11-29T02:38:30.103Z,83.26
2016-11-29T02:39:38.680Z,83.07
2016-11-29T02:40:47.586Z,82.92
2016-11-29T02:41:56.169Z,83.21
2016-11-29T02:43:04.746Z,83.26
2016-11-29T02:44:13.662Z,83.83
2016-11-29T02:45:22.559Z,84.01
2016-11-29T02:46:31.135Z,83.83
2016-11-29T02:47:40.024Z,83.78
2016-11-29T02:48:48.920Z,84.01
2016-11-29T02:49:58.166Z,84.11
2016-11-29T02:51:06.768Z,84.3
2016-11-29T02:52:15.667Z,84.01
2016-11-29T02:53:24.244Z,84.3
2016-11-29T02:54:33.152Z,84.49
2016-11-29T02:55:41.782Z,84.77
2016-11-29T02:56:50.685Z,84.77
2016-11-29T02:57:59.255Z,84.58
2016-11-29T02:59:07.828Z,83.97
2016-11-29T03:00:16.396Z,84.11
2016-11-29T03:01:25.828Z,83.78
2016-11-29T03:02:34.402Z,83.4
2016-11-29T03:03:43.293Z,83.73
2016-11-29T03:04:52.183Z,84.3
2016-11-29T03:06:01.087Z,84.77
2016-11-29T03:07:10.036Z,84.53
2016-11-29T03:08:18.925Z,84.11
2016-11-29T03:09:27.497Z,83.78
2016-11-29T03:10:36.381Z,84.68
2016-11-29T03:11:45.274Z,84.49
2016-11-29T03:12:54.217Z,84.39
2016-11-29T03:14:02.791Z,84.53
2016-11-29T03:15:11.705Z,84.01
2016-11-29T03:16:20.590Z,84.2
2016-11-29T03:17:29.146Z,84.68
2016-11-29T03:18:38.383Z,84.39
2016-11-29T03:19:47.272Z,84.11
2016-11-29T03:20:56.190Z,84.11
2016-11-29T03:22:05.081Z,83.87
2016-11-29T03:23:13.988Z,83.4
2016-11-29T03:24:22.607Z,83.92
2016-11-29T03:25:31.179Z,84.39
2016-11-29T03:26:40.086Z,83.73
2016-11-29T03:27:48.661Z,83.83
2016-11-29T03:28:57.557Z,83.64
2016-11-29T03:30:06.857Z,84.01
2016-11-29T03:31:16.394Z,83.73
2016-11-29T03:32:24.967Z,83.73
2016-11-29T03:33:33.859Z,83.83
2016-11-29T03:34:43.407Z,83.11
2016-11-29T03:35:52.735Z,83.3
2016-11-29T03:37:01.638Z,83.11
2016-11-29T03:38:11.165Z,83.3
2016-11-29T03:39:19.785Z,82.54
2016-11-29T03:40:28.371Z,82.92
2016-11-29T03:41:36.994Z,82.64
2016-11-29T03:42:46.530Z,83.36
2016-11-29T03:43:55.111Z,83.92
2016-11-29T03:45:04.315Z,84.2
2016-11-29T03:46:12.893Z,84.01
2016-11-29T03:47:21.515Z,83.26
2016-11-29T03:48:30.100Z,83.11
2016-11-29T03:49:39.310Z,82.92
2016-11-29T03:50:47.905Z,82.73
2016-11-29T03:51:56.812Z,81.79
2016-11-29T03:53:06.452Z,82.45
2016-11-29T03:54:15.675Z,82.79
2016-11-29T03:55:24.239Z,82.17
2016-11-29T03:56:32.828Z,82.6
2016-11-29T03:57:41.407Z,83.07
2016-11-29T03:58:50.349Z,83.83
2016-11-29T03:59:59.261Z,83.92
2016-11-29T04:01:08.147Z,83.73
2016-11-29T04:02:17.034Z,84.11
2016-11-29T04:03:25.939Z,84.01
2016-11-29T04:04:35.184Z,83.45
2016-11-29T04:05:44.067Z,83.17
2016-11-29T04:06:52.644Z,83.07
2016-11-29T04:08:01.538Z,83.26
2016-11-29T04:09:10.115Z,83.73
2016-11-29T04:10:19.022Z,83.64
2016-11-29T04:11:27.590Z,83.92
2016-11-29T04:12:36.158Z,84.11
2016-11-29T04:13:45.055Z,84.11
2016-11-29T04:14:53.621Z,83.92
2016-11-29T04:16:02.876Z,84.11
2016-11-29T04:17:11.465Z,84.39
2016-11-29T04:18:20.032Z,84.11
2016-11-29T04:19:28.605Z,84.58
2016-11-29T04:20:37.508Z,84.58
2016-11-29T04:21:47.077Z,84.77
2016-11-29T04:22:55.970Z,83.73
2016-11-29T04:24:04.866Z,83.73
2016-11-29T04:25:13.447Z,82.98
2016-11-29T04:26:22.667Z,82.79
2016-11-29T04:27:31.661Z,83.36
2016-11-29T04:28:40.234Z,84.01
2016-11-29T04:29:49.468Z,83.45
2016-11-29T04:30:58.691Z,83.73
2016-11-29T04:32:07.276Z,83.64
2016-11-29T04:33:16.192Z,84.01
2016-11-29T04:34:24.773Z,84.77
2016-11-29T04:35:33.346Z,84.96
2016-11-29T04:36:41.926Z,84.01
2016-11-29T04:37:50.813Z,84.49
2016-11-29T04:38:59.801Z,83.45
2016-11-29T04:40:08.996Z,83.73
2016-11-29T04:41:18.523Z,84.77
2016-11-29T04:42:27.093Z,84.77
2016-11-29T04:43:35.994Z,85.43
2016-11-29T04:44:44.946Z,84.49
2016-11-29T04:45:53.835Z,84.68
2016-11-29T04:47:02.732Z,84.49
2016-11-29T04:48:11.641Z,85.05
2016-11-29T04:49:20.536Z,85.53
2016-11-29T04:50:29.460Z,84.49
2016-11-29T04:51:38.036Z,84.49
2016-11-29T04:52:47.240Z,84.11
2016-11-29T04:53:56.147Z,83.92
2016-11-29T04:55:04.715Z,83.92
2016-11-29T04:56:14.064Z,84.86
2016-11-29T04:57:22.629Z,84.77
2016-11-29T04:58:31.209Z,84.58
2016-11-29T04:59:40.112Z,84.01
2016-11-29T05:00:49.015Z,83.92
2016-11-29T05:01:57.896Z,84.01
2016-11-29T05:03:07.130Z,83.07
2016-11-29T05:04:16.341Z,82.69
2016-11-29T05:05:24.945Z,82.88
2016-11-29T05:06:33.544Z,83.36
2016-11-29T05:07:42.838Z,83.54
2016-11-29T05:08:52.067Z,83.83
2016-11-29T05:10:00.649Z,83.17
2016-11-29T05:11:09.227Z,82.41
2016-11-29T05:12:18.119Z,83.17
2016-11-29T05:13:27.113Z,82.22
2016-11-29T05:14:35.694Z,82.41
2016-11-29T05:15:44.905Z,82.88
2016-11-29T05:16:53.483Z,83.54
2016-11-29T05:18:02.058Z,83.17
2016-11-29T05:19:10.694Z,83.07
2016-11-29T05:20:19.573Z,82.69
2016-11-29T05:21:28.463Z,82.79
2016-11-29T05:22:37.047Z,82.79
2016-11-29T05:23:45.610Z,83.07
2016-11-29T05:24:54.226Z,83.26
2016-11-29T05:26:02.808Z,83.92
2016-11-29T05:27:11.694Z,84.39
2016-11-29T05:28:20.919Z,84.49
2016-11-29T05:29:29.485Z,84.68
2016-11-29T05:30:39.714Z,84.39
2016-11-29T05:31:48.304Z,83.73
2016-11-29T05:32:57.201Z,84.11
2016-11-29T05:34:05.785Z,84.86
2016-11-29T05:35:14.996Z,84.39
2016-11-29T05:36:24.638Z,84.77
2016-11-29T05:37:33.860Z,84.11
2016-11-29T05:38:42.434Z,84.11
2016-11-29T05:39:51.356Z,83.83
2016-11-29T05:40:59.937Z,84.11
2016-11-29T05:42:09.167Z,83.83
2016-11-29T05:43:17.764Z,83.83
2016-11-29T05:44:26.354Z,84.58
2016-11-29T05:45:34.938Z,84.3
2016-11-29T05:46:43.851Z,84.77
2016-11-29T05:47:52.807Z,84.39
2016-11-29T05:49:01.382Z,84.01
2016-11-29T05:50:10.606Z,83.92
2016-11-29T05:51:19.172Z,83.92
2016-11-29T05:52:28.081Z,83.73
2016-11-29T05:53:37.089Z,83.73
2016-11-29T05:54:46.312Z,84.11
2016-11-29T05:55:55.200Z,83.83
2016-11-29T05:57:04.417Z,84.11
2016-11-29T05:58:13.313Z,83.54
2016-11-29T05:59:21.930Z,83.83
2016-11-29T06:00:30.497Z,83.54
2016-11-29T06:01:39.082Z,83.36
2016-11-29T06:02:48.627Z,83.64
2016-11-29T06:03:58.157Z,83.26
2016-11-29T06:05:07.084Z,83.17
2016-11-29T06:06:15.643Z,82.79
2016-11-29T06:07:24.212Z,83.36
2016-11-29T06:08:33.097Z,82.88
2016-11-29T06:09:41.677Z,82.79
2016-11-29T06:10:50.969Z,82.88
2016-11-29T06:11:59.888Z,82.41
2016-11-29T06:13:08.464Z,83.07
2016-11-29T06:14:17.041Z,83.83
2016-11-29T06:15:25.946Z,82.98
2016-11-29T06:16:34.948Z,83.83
2016-11-29T06:17:43.851Z,84.11
2016-11-29T06:18:52.447Z,84.77
2016-11-29T06:20:01.667Z,84.77
2016-11-29T06:21:10.558Z,84.39
2016-11-29T06:22:19.571Z,83.54
2016-11-29T06:23:28.156Z,83.73
2016-11-29T06:24:37.049Z,84.11
2016-11-29T06:25:45.634Z,84.3
2016-11-29T06:26:54.511Z,84.77
2016-11-29T06:28:03.826Z,83.83
2016-11-29T06:29:12.853Z,83.83
2016-11-29T06:30:22.101Z,84.77
2016-11-29T06:31:30.998Z,84.77
2016-11-29T06:32:40.245Z,85.01
2016-11-29T06:33:49.192Z,84.92
2016-11-29T06:34:57.767Z,84.82
2016-11-29T06:36:06.337Z,84.86
2016-11-29T06:37:14.924Z,84.86
2016-11-29T06:38:23.800Z,84.39
2016-11-29T06:39:32.772Z,84.49
2016-11-29T06:40:41.378Z,85.01
2016-11-29T06:41:49.947Z,85.11
2016-11-29T06:42:58.826Z,85.39
2016-11-29T06:44:07.417Z,85.2
2016-11-29T06:45:17.754Z,85.15
2016-11-29T06:46:26.363Z,85.49
2016-11-29T06:47:35.257Z,86.24
2016-11-29T06:48:43.825Z,85.39
2016-11-29T06:49:53.372Z,85.3
2016-11-29T06:51:02.380Z,85.24
2016-11-29T06:52:11.264Z,84.2
2016-11-29T06:53:20.155Z,83.92
2016-11-29T06:54:28.727Z,83.26
2016-11-29T06:55:37.315Z,84.11
2016-11-29T06:56:46.308Z,84.58
2016-11-29T06:57:55.192Z,84.11
2016-11-29T06:59:04.094Z,84.96
2016-11-29T07:00:13.303Z,84.01
2016-11-29T07:01:22.215Z,84.01
2016-11-29T07:02:31.154Z,84.11
2016-11-29T07:03:39.722Z,84.82
2016-11-29T07:04:48.297Z,83.64
2016-11-29T07:05:56.880Z,84.01
2016-11-29T07:07:05.755Z,84.77
2016-11-29T07:08:15.012Z,83.54
2016-11-29T07:09:24.228Z,84.39
2016-11-29T07:10:33.469Z,84.77
2016-11-29T07:11:42.357Z,84.96
2016-11-29T07:12:51.281Z,85.05
2016-11-29T07:14:00.303Z,84.3
2016-11-29T07:15:09.189Z,84.3
2016-11-29T07:16:18.106Z,84.11
2016-11-29T07:17:27.543Z,84.77
2016-11-29T07:18:37.002Z,84.58
2016-11-29T07:19:46.131Z,85.34
2016-11-29T07:20:55.014Z,84.58
2016-11-29T07:22:03.920Z,83.83
2016-11-29T07:23:12.486Z,83.45
2016-11-29T07:24:21.069Z,83.83
2016-11-29T07:25:29.996Z,83.17
2016-11-29T07:26:38.583Z,83.07
2016-11-29T07:27:47.487Z,84.01
2016-11-29T07:28:56.088Z,84.35
2016-11-29T07:30:04.668Z,84.39
2016-11-29T07:31:13.919Z,84.49
2016-11-29T07:32:22.484Z,84.58
2016-11-29T07:33:31.377Z,84.49
2016-11-29T07:34:40.257Z,84.92
2016-11-29T07:35:49.170Z,84.68
2016-11-29T07:36:58.178Z,84.45
2016-11-29T07:38:07.069Z,83.64
2016-11-29T07:39:15.669Z,84.49
2016-11-29T07:40:24.601Z,84.73
2016-11-29T07:41:33.183Z,84.3
2016-11-29T07:42:42.774Z,84.39
2016-11-29T07:43:51.980Z,84.68
2016-11-29T07:45:00.549Z,84.58
2016-11-29T07:46:09.143Z,84.77
2016-11-29T07:47:18.017Z,83.92
2016-11-29T07:48:26.699Z,82.79
2016-11-29T07:49:35.919Z,82.12
2016-11-29T07:50:45.135Z,82.69
2016-11-29T07:51:54.353Z,83.17
2016-11-29T07:53:03.269Z,82.88
2016-11-29T07:54:12.214Z,84.01
2016-11-29T07:55:20.798Z,83.73
2016-11-29T07:56:29.388Z,84.39
2016-11-29T07:57:37.948Z,84.39
2016-11-29T07:58:46.849Z,84.49
2016-11-29T07:59:55.797Z,84.01
2016-11-29T08:01:04.377Z,82.41
2016-11-29T08:02:13.273Z,83.73
2016-11-29T08:03:22.515Z,85.05
2016-11-29T08:04:31.421Z,84.68
2016-11-29T08:05:40.346Z,84.11
2016-11-29T08:06:48.922Z,84.3
2016-11-29T08:07:57.497Z,84.73
2016-11-29T08:09:06.391Z,83.36
2016-11-29T08:10:14.953Z,82.79
2016-11-29T08:11:23.586Z,82.31
2016-11-29T08:12:32.160Z,83.26
2016-11-29T08:13:41.385Z,83.45
2016-11-29T08:14:50.597Z,83.26
2016-11-29T08:15:59.501Z,83.54
2016-11-29T08:17:08.419Z,82.6
2016-11-29T08:18:16.987Z,82.69
2016-11-29T08:19:25.865Z,82.88
2016-11-29T08:20:34.442Z,82.98
2016-11-29T08:21:43.635Z,82.22
2016-11-29T08:22:52.848Z,82.6
2016-11-29T08:24:01.445Z,82.98
2016-11-29T08:25:10.023Z,82.41
2016-11-29T08:26:18.917Z,82.17
2016-11-29T08:27:28.153Z,82.41
2016-11-29T08:28:37.468Z,82.12
2016-11-29T08:29:46.692Z,81.7
2016-11-29T08:30:55.909Z,81.84
2016-11-29T08:32:04.501Z,82.12
2016-11-29T08:33:13.388Z,81.6
2016-11-29T08:34:22.662Z,81.13
2016-11-29T08:35:31.226Z,80.84
2016-11-29T08:36:39.805Z,81.22
2016-11-29T08:37:48.726Z,80.84
2016-11-29T08:38:57.312Z,80.75
2016-11-29T08:40:05.933Z,80.75
2016-11-29T08:41:14.832Z,81.6
2016-11-29T08:42:24.049Z,81.32
2016-11-29T08:43:32.624Z,81.7
2016-11-29T08:44:41.513Z,82.45
2016-11-29T08:45:50.532Z,82.73
2016-11-29T08:46:59.411Z,82.45
2016-11-29T08:48:08.316Z,82.41
2016-11-29T08:49:17.256Z,82.83
2016-11-29T08:50:25.880Z,82.92
2016-11-29T08:51:35.203Z,82.88
2016-11-29T08:52:43.775Z,82.92
2016-11-29T08:53:52.353Z,82.41
2016-11-29T08:55:00.953Z,82.73
2016-11-29T08:56:09.530Z,82.73
2016-11-29T08:57:18.790Z,82.69
2016-11-29T08:58:27.375Z,81.6
2016-11-29T08:59:35.952Z,81.7
2016-11-29T09:00:44.861Z,81.51
2016-11-29T09:01:53.759Z,81.7
2016-11-29T09:03:02.738Z,81.41
2016-11-29T09:04:12.290Z,81.88
2016-11-29T09:05:22.151Z,83.21
2016-11-29T09:06:30.729Z,83.64
2016-11-29T09:07:39.942Z,83.26
2016-11-29T09:08:48.621Z,83.21
2016-11-29T09:09:57.190Z,83.3
2016-11-29T09:11:05.800Z,83.3
2016-11-29T09:12:14.375Z,82.83
2016-11-29T09:13:23.269Z,81.98
2016-11-29T09:14:31.943Z,81.98
2016-11-29T09:15:40.839Z,82.64
2016-11-29T09:16:49.725Z,82.83
2016-11-29T09:17:58.657Z,81.79
2016-11-29T09:19:07.578Z,82.17
2016-11-29T09:20:16.776Z,82.26
2016-11-29T09:21:25.356Z,82.54
2016-11-29T09:22:33.943Z,82.07
2016-11-29T09:23:42.831Z,81.6
2016-11-29T09:24:51.406Z,81.7
2016-11-29T09:26:00.754Z,81.32
2016-11-29T09:27:09.662Z,81.07
2016-11-29T09:28:19.254Z,81.6
2016-11-29T09:29:28.143Z,81.41
2016-11-29T09:30:37.366Z,81.41
2016-11-29T09:31:46.376Z,81.07
2016-11-29T09:32:55.580Z,80.13
2016-11-29T09:34:04.154Z,80.32
2016-11-29T09:35:13.067Z,80.13
2016-11-29T09:36:21.966Z,80.04
2016-11-29T09:37:31.554Z,80.51
2016-11-29T09:38:40.458Z,80.88
2016-11-29T09:39:49.357Z,80.51
2016-11-29T09:40:58.264Z,80.41
2016-11-29T09:42:06.852Z,80.51
2016-11-29T09:43:16.194Z,80.51
2016-11-29T09:44:25.403Z,80.32
2016-11-29T09:45:33.977Z,80.13
2016-11-29T09:46:42.544Z,80.32
2016-11-29T09:47:51.127Z,80.22
2016-11-29T09:49:00.404Z,79.94
2016-11-29T09:50:09.314Z,79.37
2016-11-29T09:51:17.912Z,79.66
2016-11-29T09:52:26.503Z,79.18
2016-11-29T09:53:35.093Z,79.85
2016-11-29T09:54:44.068Z,79.18
2016-11-29T09:55:53.295Z,79.69
2016-11-29T09:57:02.516Z,78.71
2016-11-29T09:58:11.724Z,79.66
2016-11-29T09:59:20.329Z,79.85
2016-11-29T10:00:29.685Z,79.94
2016-11-29T10:01:38.598Z,79.37
2016-11-29T10:02:47.493Z,79.66
2016-11-29T10:03:56.061Z,80.22
2016-11-29T10:05:04.959Z,80.98
2016-11-29T10:06:13.898Z,80.04
2016-11-29T10:07:22.479Z,80.32
2016-11-29T10:08:31.704Z,79.47
2016-11-29T10:09:40.583Z,78.71
2016-11-29T10:10:49.472Z,79.47
2016-11-29T10:11:58.096Z,78.56
2016-11-29T10:13:06.682Z,78.46
2016-11-29T10:14:15.276Z,78.71
2016-11-29T10:15:24.176Z,78.46
2016-11-29T10:16:32.751Z,78.27
2016-11-29T10:17:42.105Z,78.27
2016-11-29T10:18:51.004Z,78.71
2016-11-29T10:19:59.596Z,78.42
2016-11-29T10:21:08.830Z,77.42
2016-11-29T10:22:17.404Z,77.7
2016-11-29T10:23:26.033Z,77.04
2016-11-29T10:24:34.939Z,77.23
2016-11-29T10:25:43.502Z,76.67
2016-11-29T10:26:52.411Z,75.81
2016-11-29T10:28:01.303Z,76.76
2016-11-29T10:29:10.238Z,77.04
2016-11-29T10:30:18.825Z,76.76
2016-11-29T10:31:27.411Z,76.67
2016-11-29T10:32:35.995Z,76.86
2016-11-29T10:33:44.887Z,77.14
2016-11-29T10:34:54.094Z,77.14
2016-11-29T10:36:02.667Z,76.95
2016-11-29T10:37:11.579Z,77.33
2016-11-29T10:38:20.493Z,77.04
2016-11-29T10:39:29.377Z,75.43
2016-11-29T10:40:38.305Z,75.85
2016-11-29T10:41:47.509Z,75.81
2016-11-29T10:42:56.097Z,76.67
2016-11-29T10:44:05.626Z,76.29
2016-11-29T10:45:14.206Z,76.76
2016-11-29T10:46:23.478Z,77.33
2016-11-29T10:47:32.364Z,77.04
2016-11-29T10:48:40.934Z,76.95
2016-11-29T10:49:49.517Z,77.51
2016-11-29T10:50:58.411Z,75.62
2016-11-29T10:52:07.371Z,75.85
2016-11-29T10:53:16.262Z,76
2016-11-29T10:54:25.166Z,75.81
2016-11-29T10:55:34.404Z,76
2016-11-29T10:56:43.623Z,75.91
2016-11-29T10:57:52.582Z,76.19
2016-11-29T10:59:01.155Z,75.81
2016-11-29T11:00:10.051Z,74.71
2016-11-29T11:01:18.964Z,74.62
2016-11-29T11:02:27.866Z,73.68
2016-11-29T11:03:37.236Z,74.24
2016-11-29T11:04:46.144Z,73.77
2016-11-29T11:05:54.715Z,74.24
2016-11-29T11:07:03.934Z,74.71
2016-11-29T11:08:13.146Z,73.3
2016-11-29T11:09:22.407Z,73.68
2016-11-29T11:10:30.988Z,74.33
2016-11-29T11:11:40.209Z,74.33
2016-11-29T11:12:49.121Z,74.33
2016-11-29T11:13:57.718Z,73.68
2016-11-29T11:15:06.416Z,73.2
2016-11-29T11:16:14.991Z,73.3
2016-11-29T11:17:24.217Z,73.58
2016-11-29T11:18:32.795Z,73.77
2016-11-29T11:19:41.698Z,73.58
2016-11-29T11:20:50.638Z,73.68
2016-11-29T11:21:59.544Z,73.39
2016-11-29T11:23:08.112Z,72.86
2016-11-29T11:24:16.700Z,72.73
2016-11-29T11:25:25.300Z,73.2
2016-11-29T11:26:34.222Z,72.82
2016-11-29T11:27:43.123Z,72
2016-11-29T11:28:52.366Z,71.44
2016-11-29T11:30:01.921Z,71.53
2016-11-29T11:31:10.824Z,71.62
2016-11-29T11:32:20.094Z,71.62
2016-11-29T11:33:28.671Z,72.77
2016-11-29T11:34:37.566Z,71.62
2016-11-29T11:35:46.134Z,71.62
2016-11-29T11:36:55.033Z,71.34
2016-11-29T11:38:03.960Z,70.58
2016-11-29T11:39:12.525Z,70.58
2016-11-29T11:40:21.102Z,71.15
2016-11-29T11:41:29.680Z,71.97
2016-11-29T11:42:38.595Z,71.06
2016-11-29T11:43:47.506Z,70.3
2016-11-29T11:44:56.733Z,71.72
2016-11-29T11:46:05.316Z,70.39
2016-11-29T11:47:14.237Z,70.49
2016-11-29T11:48:22.818Z,71.06
2016-11-29T11:49:31.733Z,71.44
2016-11-29T11:50:40.965Z,70.97
2016-11-29T11:51:49.545Z,70.39
2016-11-29T11:52:58.144Z,70.78
2016-11-29T11:54:06.728Z,70.2
2016-11-29T11:55:16.365Z,71.62
2016-11-29T11:56:25.269Z,71.44
2016-11-29T11:57:33.856Z,70.2
2016-11-29T11:58:42.767Z,69.73
2016-11-29T11:59:51.663Z,69.54
2016-11-29T12:01:00.911Z,70.78
2016-11-29T12:02:09.800Z,70.68
2016-11-29T12:03:19.036Z,69.73
2016-11-29T12:04:27.942Z,70.11
2016-11-29T12:05:37.172Z,70.2
2016-11-29T12:06:46.774Z,70.49
2016-11-29T12:07:55.995Z,69.82
2016-11-29T12:09:04.583Z,69.17
2016-11-29T12:10:13.193Z,69.17
2016-11-29T12:11:22.073Z,69.82
2016-11-29T12:12:31.750Z,69.92
2016-11-29T12:13:40.658Z,69.35
2016-11-29T12:14:49.936Z,69.35
2016-11-29T12:15:58.879Z,69.07
2016-11-29T12:17:07.460Z,68.4
2016-11-29T12:18:16.145Z,68.59
2016-11-29T12:19:25.371Z,68.4
2016-11-29T12:20:33.949Z,68.25
2016-11-29T12:21:42.516Z,67.65
2016-11-29T12:22:51.402Z,67.65
2016-11-29T12:24:00.342Z,68.21
2016-11-29T12:25:09.238Z,67.36
2016-11-29T12:26:17.810Z,66.6
2016-11-29T12:27:26.401Z,67.21
2016-11-29T12:28:35.315Z,67.93
2016-11-29T12:29:43.943Z,67.83
2016-11-29T12:30:52.513Z,67.83
2016-11-29T12:32:01.406Z,67.65
2016-11-29T12:33:10.308Z,68.12
2016-11-29T12:34:19.213Z,69.17
2016-11-29T12:35:28.500Z,68.88
2016-11-29T12:36:37.101Z,69.17
2016-11-29T12:37:45.688Z,69.73
2016-11-29T12:38:54.628Z,69.73
2016-11-29T12:40:03.535Z,69.92
2016-11-29T12:41:12.721Z,68.98
2016-11-29T12:42:21.645Z,68.12
2016-11-29T12:43:30.889Z,68.4
2016-11-29T12:44:39.476Z,68.59
2016-11-29T12:45:48.062Z,68.4
2016-11-29T12:46:57.088Z,67.93
2016-11-29T12:48:05.668Z,68.31
2016-11-29T12:49:14.879Z,68.69
2016-11-29T12:50:24.122Z,68.59
2016-11-29T12:51:32.696Z,68.4
2016-11-29T12:52:41.327Z,67.93
2016-11-29T12:53:50.564Z,67.93
2016-11-29T12:54:59.464Z,67.74
2016-11-29T12:56:08.375Z,68.21
2016-11-29T12:57:16.948Z,68.31
2016-11-29T12:58:26.268Z,68.59
2016-11-29T12:59:34.857Z,68.21
2016-11-29T13:00:43.780Z,68.02
2016-11-29T13:01:52.381Z,67.18
2016-11-29T13:03:01.286Z,67.83
2016-11-29T13:04:09.926Z,67.65
2016-11-29T13:05:18.834Z,67.46
2016-11-29T13:06:27.414Z,66.8
2016-11-29T13:07:35.988Z,66.41
2016-11-29T13:08:44.885Z,65.66
2016-11-29T13:09:53.779Z,65
2016-11-29T13:11:02.357Z,65.28
2016-11-29T13:12:11.251Z,65.66
2016-11-29T13:13:20.147Z,65.75
2016-11-29T13:14:28.715Z,66.41
2016-11-29T13:15:37.921Z,66.7
2016-11-29T13:16:47.177Z,66.51
2016-11-29T13:17:56.083Z,66.7
2016-11-29T13:19:04.679Z,67.18
2016-11-29T13:20:13.604Z,66.51
2016-11-29T13:21:23.181Z,66.99
2016-11-29T13:22:31.762Z,66.7
2016-11-29T13:23:40.985Z,66.7
2016-11-29T13:24:50.229Z,66.7
2016-11-29T13:25:58.809Z,66.32
2016-11-29T13:27:08.389Z,66.41
2016-11-29T13:28:16.960Z,65.94
2016-11-29T13:29:26.592Z,66.51
2016-11-29T13:30:35.193Z,66.41
2016-11-29T13:31:44.098Z,66.32
2016-11-29T13:32:53.078Z,66.03
2016-11-29T13:34:01.654Z,66.22
2016-11-29T13:35:10.245Z,66.32
2016-11-29T13:36:19.489Z,65.94
2016-11-29T13:37:28.407Z,66.13
2016-11-29T13:38:37.054Z,65.94
2016-11-29T13:39:45.639Z,66.22
2016-11-29T13:40:54.229Z,65.75
2016-11-29T13:42:03.137Z,66.13
2016-11-29T13:43:12.046Z,66.22
2016-11-29T13:44:21.410Z,65.94
2016-11-29T13:45:31.315Z,65.47
2016-11-29T13:46:40.254Z,66.51
2016-11-29T13:47:48.859Z,66.51
2016-11-29T13:48:57.768Z,66.13
2016-11-29T13:50:07.052Z,65.56
2016-11-29T13:51:15.982Z,65.47
2016-11-29T13:52:24.629Z,65.28
2016-11-29T13:53:33.695Z,65.19
2016-11-29T13:54:42.282Z,65
2016-11-29T13:55:51.242Z,64.42
2016-11-29T13:57:00.131Z,64.14
2016-11-29T13:58:09.026Z,65.28
2016-11-29T13:59:17.936Z,64.9
2016-11-29T14:00:26.516Z,63.57
2016-11-29T14:01:35.140Z,64.23
2016-11-29T14:02:44.355Z,64.9
2016-11-29T14:03:53.276Z,64.9
2016-11-29T14:05:01.859Z,64.81
2016-11-29T14:06:10.759Z,65.28
2016-11-29T14:07:19.658Z,65.19
2016-11-29T14:08:28.560Z,65.19
2016-11-29T14:09:37.152Z,65.47
2016-11-29T14:10:45.732Z,65.19
2016-11-29T14:11:54.353Z,65.94
2016-11-29T14:13:03.383Z,65.75
2016-11-29T14:14:11.979Z,65.66
2016-11-29T14:15:20.578Z,65.66
2016-11-29T14:16:29.801Z,66.13
2016-11-29T14:17:38.698Z,66.32
2016-11-29T14:18:47.399Z,66.22
2016-11-29T14:19:55.978Z,66.8
2016-11-29T14:21:04.863Z,66
2016-11-29T14:22:13.774Z,66.32
2016-11-29T14:23:22.676Z,66.86
2016-11-29T14:24:32.193Z,66.86
2016-11-29T14:25:40.779Z,66.76
2016-11-29T14:26:49.692Z,67.24
2016-11-29T14:27:59.235Z,67.99
2016-11-29T14:29:07.843Z,68.18
2016-11-29T14:30:17.446Z,67.71
2016-11-29T14:31:26.016Z,68.18
2016-11-29T14:32:34.932Z,67.99
2016-11-29T14:33:43.517Z,67.61
2016-11-29T14:34:52.090Z,67.71
2016-11-29T14:36:00.716Z,67.9
2016-11-29T14:37:09.930Z,67.71
2016-11-29T14:38:18.845Z,67.99
2016-11-29T14:39:27.747Z,68.18
2016-11-29T14:40:36.349Z,68.27
2016-11-29T14:41:45.361Z,68.37
2016-11-29T14:42:53.954Z,68.46
2016-11-29T14:44:02.569Z,68.46
2016-11-29T14:45:11.136Z,68.08
2016-11-29T14:46:20.030Z,67.9
2016-11-29T14:47:28.673Z,68.37
2016-11-29T14:48:37.252Z,68.46
2016-11-29T14:49:46.166Z,68.37
2016-11-29T14:50:55.081Z,68.65
2016-11-29T14:52:03.970Z,69.7